sensor_id;sensor_type;location;lat;lon;timestamp;P1;durP1;ratioP1;P2;durP2;ratioP2
12407;SDS011;6268;48.188;17.134;2023-07-22T00:00:31;4.57;;;4.20;;
12407;SDS011;6268;48.188;17.134;2023-07-22T00:03:52;5.15;;;4.75;;
12407;SDS011;6268;48.188;17.134;2023-07-22T00:07:13;4.97;;;4.60;;
12407;SDS011;6268;48.188;17.134;2023-07-22T00:10:36;5.30;;;4.80;;
12407;SDS011;6268;48.188;17.134;2023-07-22T00:14:01;6.95;;;5.10;;
12407;SDS011;6268;48.188;17.134;2023-07-22T00:17:22;5.65;;;5.15;;
12407;SDS011;6268;48.188;17.134;2023-07-22T00:20:44;5.10;;;4.72;;
12407;SDS011;6268;48.188;17.134;2023-07-22T00:24:05;5.00;;;4.53;;
12407;SDS011;6268;48.188;17.134;2023-07-22T00:27:29;4.68;;;4.28;;
12407;SDS011;6268;48.188;17.134;2023-07-22T00:30:50;5.15;;;4.57;;
12407;SDS011;6268;48.188;17.134;2023-07-22T00:34:11;4.88;;;4.57;;
12407;SDS011;6268;48.188;17.134;2023-07-22T00:37:33;4.20;;;3.90;;
12407;SDS011;6268;48.188;17.134;2023-07-22T00:40:54;4.50;;;4.00;;
12407;SDS011;6268;48.188;17.134;2023-07-22T00:44:17;5.00;;;4.60;;
12407;SDS011;6268;48.188;17.134;2023-07-22T00:47:39;4.55;;;4.15;;
12407;SDS011;6268;48.188;17.134;2023-07-22T00:51:01;4.57;;;4.20;;
12407;SDS011;6268;48.188;17.134;2023-07-22T00:54:23;4.55;;;4.25;;
12407;SDS011;6268;48.188;17.134;2023-07-22T00:57:45;4.65;;;4.22;;
12407;SDS011;6268;48.188;17.134;2023-07-22T01:01:07;4.65;;;4.35;;
12407;SDS011;6268;48.188;17.134;2023-07-22T01:04:29;4.93;;;4.55;;
12407;SDS011;6268;48.188;17.134;2023-07-22T01:07:55;4.88;;;4.45;;
12407;SDS011;6268;48.188;17.134;2023-07-22T01:11:17;4.43;;;4.13;;
12407;SDS011;6268;48.188;17.134;2023-07-22T01:14:40;4.47;;;4.18;;
12407;SDS011;6268;48.188;17.134;2023-07-22T01:18:05;4.60;;;4.20;;
12407;SDS011;6268;48.188;17.134;2023-07-22T01:21:27;4.85;;;4.50;;
12407;SDS011;6268;48.188;17.134;2023-07-22T01:24:51;4.50;;;4.20;;
12407;SDS011;6268;48.188;17.134;2023-07-22T01:28:12;4.50;;;4.20;;
12407;SDS011;6268;48.188;17.134;2023-07-22T01:31:34;5.68;;;4.70;;
12407;SDS011;6268;48.188;17.134;2023-07-22T01:34:55;4.63;;;4.32;;
12407;SDS011;6268;48.188;17.134;2023-07-22T01:38:16;4.43;;;4.10;;
12407;SDS011;6268;48.188;17.134;2023-07-22T01:41:40;3.92;;;3.67;;
12407;SDS011;6268;48.188;17.134;2023-07-22T01:45:01;3.92;;;3.63;;
12407;SDS011;6268;48.188;17.134;2023-07-22T01:48:22;3.50;;;3.25;;
12407;SDS011;6268;48.188;17.134;2023-07-22T01:51:43;4.32;;;3.97;;
12407;SDS011;6268;48.188;17.134;2023-07-22T01:55:05;4.05;;;3.75;;
12407;SDS011;6268;48.188;17.134;2023-07-22T01:58:29;3.95;;;3.65;;
12407;SDS011;6268;48.188;17.134;2023-07-22T02:01:50;4.13;;;3.78;;
12407;SDS011;6268;48.188;17.134;2023-07-22T02:05:12;4.07;;;3.78;;
12407;SDS011;6268;48.188;17.134;2023-07-22T02:08:33;4.25;;;3.95;;
12407;SDS011;6268;48.188;17.134;2023-07-22T02:11:54;4.10;;;3.50;;
12407;SDS011;6268;48.188;17.134;2023-07-22T02:15:17;3.50;;;3.30;;
12407;SDS011;6268;48.188;17.134;2023-07-22T02:18:39;3.47;;;3.28;;
12407;SDS011;6268;48.188;17.134;2023-07-22T02:22:19;3.17;;;2.97;;
12407;SDS011;6268;48.188;17.134;2023-07-22T02:25:40;3.47;;;3.28;;
12407;SDS011;6268;48.188;17.134;2023-07-22T02:29:01;2.95;;;2.75;;
12407;SDS011;6268;48.188;17.134;2023-07-22T02:32:24;3.45;;;3.25;;
12407;SDS011;6268;48.188;17.134;2023-07-22T02:35:46;3.40;;;3.10;;
12407;SDS011;6268;48.188;17.134;2023-07-22T02:39:08;3.60;;;3.30;;
12407;SDS011;6268;48.188;17.134;2023-07-22T02:42:34;3.72;;;3.40;;
12407;SDS011;6268;48.188;17.134;2023-07-22T02:45:55;4.00;;;3.22;;
12407;SDS011;6268;48.188;17.134;2023-07-22T02:49:18;3.70;;;3.42;;
12407;SDS011;6268;48.188;17.134;2023-07-22T02:52:39;3.72;;;3.42;;
12407;SDS011;6268;48.188;17.134;2023-07-22T02:56:00;3.75;;;3.47;;
12407;SDS011;6268;48.188;17.134;2023-07-22T02:59:21;3.33;;;3.10;;
12407;SDS011;6268;48.188;17.134;2023-07-22T03:02:50;3.22;;;3.03;;
12407;SDS011;6268;48.188;17.134;2023-07-22T03:06:13;3.30;;;3.10;;
12407;SDS011;6268;48.188;17.134;2023-07-22T03:09:35;4.00;;;3.70;;
12407;SDS011;6268;48.188;17.134;2023-07-22T03:12:56;3.65;;;2.92;;
12407;SDS011;6268;48.188;17.134;2023-07-22T03:16:17;3.63;;;3.35;;
12407;SDS011;6268;48.188;17.134;2023-07-22T03:19:39;2.92;;;2.72;;
12407;SDS011;6268;48.188;17.134;2023-07-22T03:23:01;3.65;;;3.42;;
12407;SDS011;6268;48.188;17.134;2023-07-22T03:26:22;3.05;;;2.85;;
12407;SDS011;6268;48.188;17.134;2023-07-22T03:29:44;3.78;;;3.28;;
12407;SDS011;6268;48.188;17.134;2023-07-22T03:33:05;3.10;;;2.90;;
12407;SDS011;6268;48.188;17.134;2023-07-22T03:36:27;3.00;;;2.80;;
12407;SDS011;6268;48.188;17.134;2023-07-22T03:39:50;3.33;;;3.03;;
12407;SDS011;6268;48.188;17.134;2023-07-22T03:43:11;3.22;;;2.95;;
12407;SDS011;6268;48.188;17.134;2023-07-22T03:46:32;2.72;;;2.60;;
12407;SDS011;6268;48.188;17.134;2023-07-22T03:49:54;3.70;;;2.80;;
12407;SDS011;6268;48.188;17.134;2023-07-22T03:53:21;2.88;;;2.67;;
12407;SDS011;6268;48.188;17.134;2023-07-22T03:56:44;3.00;;;2.80;;
12407;SDS011;6268;48.188;17.134;2023-07-22T04:00:06;3.05;;;2.85;;
12407;SDS011;6268;48.188;17.134;2023-07-22T04:03:28;4.10;;;2.40;;
12407;SDS011;6268;48.188;17.134;2023-07-22T04:06:49;2.67;;;2.50;;
12407;SDS011;6268;48.188;17.134;2023-07-22T04:10:12;2.72;;;2.53;;
12407;SDS011;6268;48.188;17.134;2023-07-22T04:13:34;3.42;;;2.63;;
12407;SDS011;6268;48.188;17.134;2023-07-22T04:16:56;2.90;;;2.70;;
12407;SDS011;6268;48.188;17.134;2023-07-22T04:20:17;3.08;;;2.33;;
12407;SDS011;6268;48.188;17.134;2023-07-22T04:23:38;2.40;;;2.30;;
12407;SDS011;6268;48.188;17.134;2023-07-22T04:27:00;2.75;;;2.55;;
12407;SDS011;6268;48.188;17.134;2023-07-22T04:30:22;2.67;;;2.47;;
12407;SDS011;6268;48.188;17.134;2023-07-22T04:33:45;2.45;;;2.33;;
12407;SDS011;6268;48.188;17.134;2023-07-22T04:37:07;2.90;;;2.70;;
12407;SDS011;6268;48.188;17.134;2023-07-22T04:40:29;3.00;;;2.70;;
12407;SDS011;6268;48.188;17.134;2023-07-22T04:43:51;4.20;;;2.58;;
12407;SDS011;6268;48.188;17.134;2023-07-22T04:47:14;2.30;;;2.20;;
12407;SDS011;6268;48.188;17.134;2023-07-22T04:50:35;2.15;;;2.05;;
12407;SDS011;6268;48.188;17.134;2023-07-22T04:53:56;2.10;;;1.98;;
12407;SDS011;6268;48.188;17.134;2023-07-22T04:57:17;2.20;;;2.10;;
12407;SDS011;6268;48.188;17.134;2023-07-22T05:00:39;2.30;;;2.20;;
12407;SDS011;6268;48.188;17.134;2023-07-22T05:04:01;2.28;;;2.08;;
12407;SDS011;6268;48.188;17.134;2023-07-22T05:07:23;2.88;;;2.00;;
12407;SDS011;6268;48.188;17.134;2023-07-22T05:10:44;1.80;;;1.70;;
12407;SDS011;6268;48.188;17.134;2023-07-22T05:14:05;2.03;;;1.83;;
12407;SDS011;6268;48.188;17.134;2023-07-22T05:17:27;2.35;;;2.05;;
12407;SDS011;6268;48.188;17.134;2023-07-22T05:20:49;2.38;;;1.73;;
12407;SDS011;6268;48.188;17.134;2023-07-22T05:24:10;3.42;;;1.95;;
12407;SDS011;6268;48.188;17.134;2023-07-22T05:27:32;1.50;;;1.40;;
12407;SDS011;6268;48.188;17.134;2023-07-22T05:30:55;3.00;;;1.30;;
12407;SDS011;6268;48.188;17.134;2023-07-22T05:34:16;1.70;;;1.60;;
12407;SDS011;6268;48.188;17.134;2023-07-22T05:37:39;1.88;;;1.73;;
12407;SDS011;6268;48.188;17.134;2023-07-22T05:41:00;1.38;;;1.38;;
12407;SDS011;6268;48.188;17.134;2023-07-22T05:44:21;2.05;;;1.70;;
12407;SDS011;6268;48.188;17.134;2023-07-22T05:47:43;2.10;;;1.35;;
12407;SDS011;6268;48.188;17.134;2023-07-22T05:51:04;1.48;;;1.38;;
12407;SDS011;6268;48.188;17.134;2023-07-22T05:54:26;1.75;;;1.65;;
12407;SDS011;6268;48.188;17.134;2023-07-22T05:57:48;1.63;;;1.58;;
12407;SDS011;6268;48.188;17.134;2023-07-22T06:01:09;1.55;;;1.50;;
12407;SDS011;6268;48.188;17.134;2023-07-22T06:04:31;1.95;;;1.45;;
12407;SDS011;6268;48.188;17.134;2023-07-22T06:07:53;1.98;;;1.88;;
12407;SDS011;6268;48.188;17.134;2023-07-22T06:11:15;1.92;;;1.70;;
12407;SDS011;6268;48.188;17.134;2023-07-22T06:14:36;1.92;;;1.60;;
12407;SDS011;6268;48.188;17.134;2023-07-22T06:17:58;1.90;;;1.70;;
12407;SDS011;6268;48.188;17.134;2023-07-22T06:21:19;2.72;;;1.70;;
12407;SDS011;6268;48.188;17.134;2023-07-22T06:24:41;2.20;;;1.70;;
12407;SDS011;6268;48.188;17.134;2023-07-22T06:28:04;1.67;;;1.52;;
12407;SDS011;6268;48.188;17.134;2023-07-22T06:31:25;1.50;;;1.40;;
12407;SDS011;6268;48.188;17.134;2023-07-22T06:34:46;1.65;;;1.40;;
12407;SDS011;6268;48.188;17.134;2023-07-22T06:38:08;1.70;;;1.60;;
12407;SDS011;6268;48.188;17.134;2023-07-22T06:41:30;1.50;;;1.50;;
12407;SDS011;6268;48.188;17.134;2023-07-22T06:44:54;1.88;;;1.77;;
12407;SDS011;6268;48.188;17.134;2023-07-22T06:48:15;1.60;;;1.50;;
12407;SDS011;6268;48.188;17.134;2023-07-22T06:51:36;1.60;;;1.50;;
12407;SDS011;6268;48.188;17.134;2023-07-22T06:54:57;1.85;;;1.75;;
12407;SDS011;6268;48.188;17.134;2023-07-22T06:58:19;2.60;;;2.50;;
12407;SDS011;6268;48.188;17.134;2023-07-22T07:01:42;1.95;;;1.65;;
12407;SDS011;6268;48.188;17.134;2023-07-22T07:05:04;2.17;;;1.95;;
12407;SDS011;6268;48.188;17.134;2023-07-22T07:08:25;1.70;;;1.60;;
12407;SDS011;6268;48.188;17.134;2023-07-22T07:11:47;3.28;;;1.75;;
12407;SDS011;6268;48.188;17.134;2023-07-22T07:15:08;1.60;;;1.50;;
12407;SDS011;6268;48.188;17.134;2023-07-22T07:18:46;2.97;;;1.80;;
12407;SDS011;6268;48.188;17.134;2023-07-22T07:22:08;1.70;;;1.60;;
12407;SDS011;6268;48.188;17.134;2023-07-22T07:25:29;1.90;;;1.80;;
12407;SDS011;6268;48.188;17.134;2023-07-22T07:28:52;3.58;;;1.88;;
12407;SDS011;6268;48.188;17.134;2023-07-22T07:32:17;2.03;;;1.90;;
12407;SDS011;6268;48.188;17.134;2023-07-22T07:35:39;1.88;;;1.27;;
12407;SDS011;6268;48.188;17.134;2023-07-22T07:39:01;2.65;;;2.17;;
12407;SDS011;6268;48.188;17.134;2023-07-22T07:42:26;3.80;;;1.70;;
12407;SDS011;6268;48.188;17.134;2023-07-22T07:45:47;1.10;;;1.10;;
12407;SDS011;6268;48.188;17.134;2023-07-22T07:49:09;1.83;;;1.52;;
12407;SDS011;6268;48.188;17.134;2023-07-22T07:52:32;1.45;;;1.38;;
12407;SDS011;6268;48.188;17.134;2023-07-22T07:55:53;2.00;;;1.60;;
12407;SDS011;6268;48.188;17.134;2023-07-22T07:59:15;2.03;;;1.80;;
12407;SDS011;6268;48.188;17.134;2023-07-22T08:02:36;1.33;;;1.23;;
12407;SDS011;6268;48.188;17.134;2023-07-22T08:05:58;1.38;;;1.27;;
12407;SDS011;6268;48.188;17.134;2023-07-22T08:09:21;3.00;;;1.98;;
12407;SDS011;6268;48.188;17.134;2023-07-22T08:12:42;1.60;;;1.50;;
12407;SDS011;6268;48.188;17.134;2023-07-22T08:16:04;3.55;;;1.50;;
12407;SDS011;6268;48.188;17.134;2023-07-22T08:19:26;1.17;;;1.10;;
12407;SDS011;6268;48.188;17.134;2023-07-22T08:22:48;1.20;;;1.20;;
12407;SDS011;6268;48.188;17.134;2023-07-22T08:26:13;2.42;;;1.70;;
12407;SDS011;6268;48.188;17.134;2023-07-22T08:29:35;1.20;;;1.10;;
12407;SDS011;6268;48.188;17.134;2023-07-22T08:32:57;3.25;;;1.80;;
12407;SDS011;6268;48.188;17.134;2023-07-22T08:36:18;1.60;;;1.30;;
12407;SDS011;6268;48.188;17.134;2023-07-22T08:39:39;1.45;;;1.35;;
12407;SDS011;6268;48.188;17.134;2023-07-22T08:43:03;7.88;;;1.70;;
12407;SDS011;6268;48.188;17.134;2023-07-22T08:46:27;3.45;;;3.25;;
12407;SDS011;6268;48.188;17.134;2023-07-22T08:49:52;4.88;;;3.05;;
12407;SDS011;6268;48.188;17.134;2023-07-22T08:53:20;1.70;;;1.60;;
12407;SDS011;6268;48.188;17.134;2023-07-22T08:56:42;1.60;;;1.50;;
12407;SDS011;6268;48.188;17.134;2023-07-22T09:00:05;1.13;;;1.13;;
12407;SDS011;6268;48.188;17.134;2023-07-22T09:03:29;1.25;;;1.15;;
12407;SDS011;6268;48.188;17.134;2023-07-22T09:06:50;1.45;;;1.35;;
12407;SDS011;6268;48.188;17.134;2023-07-22T09:10:14;1.77;;;1.25;;
12407;SDS011;6268;48.188;17.134;2023-07-22T09:13:36;1.73;;;1.27;;
12407;SDS011;6268;48.188;17.134;2023-07-22T09:17:04;1.20;;;1.10;;
12407;SDS011;6268;48.188;17.134;2023-07-22T09:20:26;1.23;;;1.23;;
12407;SDS011;6268;48.188;17.134;2023-07-22T09:23:48;2.95;;;2.70;;
12407;SDS011;6268;48.188;17.134;2023-07-22T09:27:10;4.88;;;1.80;;
12407;SDS011;6268;48.188;17.134;2023-07-22T09:30:32;1.00;;;1.00;;
12407;SDS011;6268;48.188;17.134;2023-07-22T09:33:57;1.30;;;1.20;;
12407;SDS011;6268;48.188;17.134;2023-07-22T09:37:37;1.10;;;0.98;;
12407;SDS011;6268;48.188;17.134;2023-07-22T09:40:58;1.90;;;1.00;;
12407;SDS011;6268;48.188;17.134;2023-07-22T09:44:20;1.40;;;1.30;;
12407;SDS011;6268;48.188;17.134;2023-07-22T09:47:42;3.40;;;1.58;;
12407;SDS011;6268;48.188;17.134;2023-07-22T09:51:14;1.98;;;1.23;;
12407;SDS011;6268;48.188;17.134;2023-07-22T09:54:46;1.20;;;1.20;;
12407;SDS011;6268;48.188;17.134;2023-07-22T09:58:07;1.08;;;1.08;;
12407;SDS011;6268;48.188;17.134;2023-07-22T10:01:32;1.50;;;1.40;;
12407;SDS011;6268;48.188;17.134;2023-07-22T10:04:57;0.95;;;0.95;;
12407;SDS011;6268;48.188;17.134;2023-07-22T10:08:21;1.27;;;1.23;;
12407;SDS011;6268;48.188;17.134;2023-07-22T10:11:45;1.20;;;1.17;;
12407;SDS011;6268;48.188;17.134;2023-07-22T10:15:07;1.40;;;1.30;;
12407;SDS011;6268;48.188;17.134;2023-07-22T10:18:30;2.00;;;1.90;;
12407;SDS011;6268;48.188;17.134;2023-07-22T10:21:53;1.30;;;1.30;;
12407;SDS011;6268;48.188;17.134;2023-07-22T10:25:16;1.00;;;1.00;;
12407;SDS011;6268;48.188;17.134;2023-07-22T10:28:40;1.67;;;1.05;;
12407;SDS011;6268;48.188;17.134;2023-07-22T10:32:04;1.17;;;1.17;;
12407;SDS011;6268;48.188;17.134;2023-07-22T10:35:34;1.02;;;1.02;;
12407;SDS011;6268;48.188;17.134;2023-07-22T10:39:00;1.85;;;1.40;;
12407;SDS011;6268;48.188;17.134;2023-07-22T10:42:27;1.15;;;1.15;;
12407;SDS011;6268;48.188;17.134;2023-07-22T10:45:53;1.10;;;1.00;;
12407;SDS011;6268;48.188;17.134;2023-07-22T10:49:24;2.60;;;1.40;;
12407;SDS011;6268;48.188;17.134;2023-07-22T10:53:10;1.10;;;1.10;;
12407;SDS011;6268;48.188;17.134;2023-07-22T10:56:37;1.20;;;1.20;;
12407;SDS011;6268;48.188;17.134;2023-07-22T11:00:17;0.88;;;0.88;;
12407;SDS011;6268;48.188;17.134;2023-07-22T11:04:11;1.27;;;1.20;;
12407;SDS011;6268;48.188;17.134;2023-07-22T11:07:34;1.00;;;1.00;;
12407;SDS011;6268;48.188;17.134;2023-07-22T11:11:04;1.90;;;1.40;;
12407;SDS011;6268;48.188;17.134;2023-07-22T11:14:28;2.80;;;1.30;;
12407;SDS011;6268;48.188;17.134;2023-07-22T11:17:50;1.50;;;1.35;;
12407;SDS011;6268;48.188;17.134;2023-07-22T11:21:11;1.50;;;1.40;;
12407;SDS011;6268;48.188;17.134;2023-07-22T11:24:34;3.00;;;1.40;;
12407;SDS011;6268;48.188;17.134;2023-07-22T11:27:55;1.95;;;1.00;;
12407;SDS011;6268;48.188;17.134;2023-07-22T11:31:21;1.60;;;1.48;;
12407;SDS011;6268;48.188;17.134;2023-07-22T11:34:42;2.17;;;1.20;;
12407;SDS011;6268;48.188;17.134;2023-07-22T11:38:04;1.15;;;1.10;;
12407;SDS011;6268;48.188;17.134;2023-07-22T11:41:29;1.73;;;1.63;;
12407;SDS011;6268;48.188;17.134;2023-07-22T11:44:51;1.17;;;1.17;;
12407;SDS011;6268;48.188;17.134;2023-07-22T11:48:14;1.40;;;1.30;;
12407;SDS011;6268;48.188;17.134;2023-07-22T11:51:35;2.92;;;1.30;;
12407;SDS011;6268;48.188;17.134;2023-07-22T11:54:59;1.10;;;1.10;;
12407;SDS011;6268;48.188;17.134;2023-07-22T11:58:26;1.75;;;1.60;;
12407;SDS011;6268;48.188;17.134;2023-07-22T12:02:00;1.33;;;1.33;;
12407;SDS011;6268;48.188;17.134;2023-07-22T12:05:25;1.42;;;1.33;;
12407;SDS011;6268;48.188;17.134;2023-07-22T12:08:47;1.27;;;1.20;;
12407;SDS011;6268;48.188;17.134;2023-07-22T12:12:15;3.85;;;1.60;;
12407;SDS011;6268;48.188;17.134;2023-07-22T12:15:36;1.40;;;1.30;;
12407;SDS011;6268;48.188;17.134;2023-07-22T12:18:57;1.20;;;1.20;;
12407;SDS011;6268;48.188;17.134;2023-07-22T12:22:20;1.38;;;1.00;;
12407;SDS011;6268;48.188;17.134;2023-07-22T12:25:42;1.58;;;1.40;;
12407;SDS011;6268;48.188;17.134;2023-07-22T12:29:03;2.40;;;1.63;;
12407;SDS011;6268;48.188;17.134;2023-07-22T12:32:24;2.20;;;1.80;;
12407;SDS011;6268;48.188;17.134;2023-07-22T12:35:45;1.50;;;1.40;;
12407;SDS011;6268;48.188;17.134;2023-07-22T12:39:08;1.42;;;1.33;;
12407;SDS011;6268;48.188;17.134;2023-07-22T12:42:35;1.75;;;1.65;;
12407;SDS011;6268;48.188;17.134;2023-07-22T12:45:57;1.70;;;1.60;;
12407;SDS011;6268;48.188;17.134;2023-07-22T12:49:20;1.60;;;1.50;;
12407;SDS011;6268;48.188;17.134;2023-07-22T12:52:41;2.10;;;1.40;;
12407;SDS011;6268;48.188;17.134;2023-07-22T12:56:03;2.05;;;1.90;;
12407;SDS011;6268;48.188;17.134;2023-07-22T12:59:25;1.45;;;1.42;;
12407;SDS011;6268;48.188;17.134;2023-07-22T13:02:46;3.78;;;1.40;;
12407;SDS011;6268;48.188;17.134;2023-07-22T13:06:07;1.52;;;1.42;;
12407;SDS011;6268;48.188;17.134;2023-07-22T13:09:28;2.03;;;1.90;;
12407;SDS011;6268;48.188;17.134;2023-07-22T13:12:53;2.20;;;1.50;;
12407;SDS011;6268;48.188;17.134;2023-07-22T13:16:14;4.30;;;1.60;;
12407;SDS011;6268;48.188;17.134;2023-07-22T13:19:35;1.70;;;1.60;;
12407;SDS011;6268;48.188;17.134;2023-07-22T13:22:57;1.70;;;1.60;;
12407;SDS011;6268;48.188;17.134;2023-07-22T13:26:18;1.80;;;1.63;;
12407;SDS011;6268;48.188;17.134;2023-07-22T13:29:40;1.77;;;1.33;;
12407;SDS011;6268;48.188;17.134;2023-07-22T13:33:02;1.60;;;1.50;;
12407;SDS011;6268;48.188;17.134;2023-07-22T13:36:23;1.40;;;1.40;;
12407;SDS011;6268;48.188;17.134;2023-07-22T13:39:44;2.10;;;1.70;;
12407;SDS011;6268;48.188;17.134;2023-07-22T13:43:06;3.33;;;1.77;;
12407;SDS011;6268;48.188;17.134;2023-07-22T13:46:30;1.63;;;1.52;;
12407;SDS011;6268;48.188;17.134;2023-07-22T13:49:51;1.75;;;1.65;;
12407;SDS011;6268;48.188;17.134;2023-07-22T13:53:13;1.60;;;1.50;;
12407;SDS011;6268;48.188;17.134;2023-07-22T13:56:34;1.70;;;1.60;;
12407;SDS011;6268;48.188;17.134;2023-07-22T13:59:55;1.85;;;1.50;;
12407;SDS011;6268;48.188;17.134;2023-07-22T14:03:18;1.42;;;1.42;;
12407;SDS011;6268;48.188;17.134;2023-07-22T14:06:39;2.17;;;1.40;;
12407;SDS011;6268;48.188;17.134;2023-07-22T14:10:00;4.32;;;1.70;;
12407;SDS011;6268;48.188;17.134;2023-07-22T14:13:22;1.67;;;1.58;;
12407;SDS011;6268;48.188;17.134;2023-07-22T14:16:43;1.38;;;1.30;;
12407;SDS011;6268;48.188;17.134;2023-07-22T14:20:07;1.45;;;1.35;;
12407;SDS011;6268;48.188;17.134;2023-07-22T14:23:29;1.42;;;1.33;;
12407;SDS011;6268;48.188;17.134;2023-07-22T14:26:50;1.55;;;1.30;;
12407;SDS011;6268;48.188;17.134;2023-07-22T14:30:11;1.55;;;1.45;;
12407;SDS011;6268;48.188;17.134;2023-07-22T14:33:33;1.65;;;1.55;;
12407;SDS011;6268;48.188;17.134;2023-07-22T14:37:14;1.63;;;1.52;;
12407;SDS011;6268;48.188;17.134;2023-07-22T14:40:35;2.85;;;1.50;;
12407;SDS011;6268;48.188;17.134;2023-07-22T14:43:56;2.00;;;1.58;;
12407;SDS011;6268;48.188;17.134;2023-07-22T14:47:18;1.45;;;1.45;;
12407;SDS011;6268;48.188;17.134;2023-07-22T14:50:39;3.08;;;1.63;;
12407;SDS011;6268;48.188;17.134;2023-07-22T14:54:02;1.45;;;1.35;;
12407;SDS011;6268;48.188;17.134;2023-07-22T14:57:23;1.90;;;1.80;;
12407;SDS011;6268;48.188;17.134;2023-07-22T15:00:44;1.98;;;1.88;;
12407;SDS011;6268;48.188;17.134;2023-07-22T15:04:06;1.30;;;1.30;;
12407;SDS011;6268;48.188;17.134;2023-07-22T15:07:27;3.28;;;1.52;;
12407;SDS011;6268;48.188;17.134;2023-07-22T15:10:50;1.63;;;1.52;;
12407;SDS011;6268;48.188;17.134;2023-07-22T15:14:11;3.15;;;2.00;;
12407;SDS011;6268;48.188;17.134;2023-07-22T15:17:33;1.92;;;1.83;;
12407;SDS011;6268;48.188;17.134;2023-07-22T15:20:54;2.95;;;2.75;;
12407;SDS011;6268;48.188;17.134;2023-07-22T15:24:16;1.63;;;1.52;;
12407;SDS011;6268;48.188;17.134;2023-07-22T15:27:39;1.70;;;1.60;;
12407;SDS011;6268;48.188;17.134;2023-07-22T15:31:00;1.80;;;1.48;;
12407;SDS011;6268;48.188;17.134;2023-07-22T15:34:21;2.05;;;1.95;;
12407;SDS011;6268;48.188;17.134;2023-07-22T15:37:42;1.70;;;1.60;;
12407;SDS011;6268;48.188;17.134;2023-07-22T15:41:03;1.77;;;1.67;;
12407;SDS011;6268;48.188;17.134;2023-07-22T15:44:26;1.70;;;1.60;;
12407;SDS011;6268;48.188;17.134;2023-07-22T15:47:47;1.75;;;1.65;;
12407;SDS011;6268;48.188;17.134;2023-07-22T15:51:08;2.03;;;1.83;;
12407;SDS011;6268;48.188;17.134;2023-07-22T15:54:31;1.90;;;1.80;;
12407;SDS011;6268;48.188;17.134;2023-07-22T15:57:52;2.08;;;1.98;;
12407;SDS011;6268;48.188;17.134;2023-07-22T16:01:14;3.67;;;1.85;;
12407;SDS011;6268;48.188;17.134;2023-07-22T16:04:36;3.97;;;1.80;;
12407;SDS011;6268;48.188;17.134;2023-07-22T16:07:57;4.78;;;2.10;;
12407;SDS011;6268;48.188;17.134;2023-07-22T16:11:18;1.98;;;1.88;;
12407;SDS011;6268;48.188;17.134;2023-07-22T16:14:39;2.05;;;1.90;;
12407;SDS011;6268;48.188;17.134;2023-07-22T16:18:02;1.88;;;1.77;;
12407;SDS011;6268;48.188;17.134;2023-07-22T16:21:23;1.92;;;1.83;;
12407;SDS011;6268;48.188;17.134;2023-07-22T16:24:44;4.22;;;1.92;;
12407;SDS011;6268;48.188;17.134;2023-07-22T16:28:06;6.45;;;5.85;;
12407;SDS011;6268;48.188;17.134;2023-07-22T16:31:29;3.30;;;3.08;;
12407;SDS011;6268;48.188;17.134;2023-07-22T16:34:52;2.78;;;2.58;;
12407;SDS011;6268;48.188;17.134;2023-07-22T16:38:13;2.88;;;2.10;;
12407;SDS011;6268;48.188;17.134;2023-07-22T16:41:34;2.08;;;1.90;;
12407;SDS011;6268;48.188;17.134;2023-07-22T16:44:56;2.60;;;2.25;;
12407;SDS011;6268;48.188;17.134;2023-07-22T16:48:17;2.25;;;2.15;;
12407;SDS011;6268;48.188;17.134;2023-07-22T16:51:44;2.33;;;2.13;;
12407;SDS011;6268;48.188;17.134;2023-07-22T16:55:05;5.53;;;2.05;;
12407;SDS011;6268;48.188;17.134;2023-07-22T16:58:28;2.47;;;2.28;;
12407;SDS011;6268;48.188;17.134;2023-07-22T17:01:49;2.03;;;1.92;;
12407;SDS011;6268;48.188;17.134;2023-07-22T17:05:11;1.90;;;1.80;;
12407;SDS011;6268;48.188;17.134;2023-07-22T17:08:34;2.45;;;1.67;;
12407;SDS011;6268;48.188;17.134;2023-07-22T17:11:55;2.90;;;2.05;;
12407;SDS011;6268;48.188;17.134;2023-07-22T17:15:16;2.15;;;2.05;;
12407;SDS011;6268;48.188;17.134;2023-07-22T17:18:38;2.03;;;1.92;;
12407;SDS011;6268;48.188;17.134;2023-07-22T17:21:59;2.65;;;2.38;;
12407;SDS011;6268;48.188;17.134;2023-07-22T17:25:22;4.20;;;2.28;;
12407;SDS011;6268;48.188;17.134;2023-07-22T17:28:43;2.88;;;2.05;;
12407;SDS011;6268;48.188;17.134;2023-07-22T17:32:06;2.83;;;2.13;;
12407;SDS011;6268;48.188;17.134;2023-07-22T17:35:31;2.40;;;2.20;;
12407;SDS011;6268;48.188;17.134;2023-07-22T17:38:52;2.47;;;2.28;;
12407;SDS011;6268;48.188;17.134;2023-07-22T17:42:16;2.90;;;2.63;;
12407;SDS011;6268;48.188;17.134;2023-07-22T17:45:37;3.05;;;2.75;;
12407;SDS011;6268;48.188;17.134;2023-07-22T17:48:59;3.42;;;2.38;;
12407;SDS011;6268;48.188;17.134;2023-07-22T17:52:20;2.95;;;2.53;;
12407;SDS011;6268;48.188;17.134;2023-07-22T17:55:41;3.03;;;2.25;;
12407;SDS011;6268;48.188;17.134;2023-07-22T17:59:04;2.45;;;2.10;;
12407;SDS011;6268;48.188;17.134;2023-07-22T18:02:25;2.40;;;2.30;;
12407;SDS011;6268;48.188;17.134;2023-07-22T18:05:47;2.33;;;2.13;;
12407;SDS011;6268;48.188;17.134;2023-07-22T18:09:08;4.82;;;2.30;;
12407;SDS011;6268;48.188;17.134;2023-07-22T18:12:30;2.50;;;2.30;;
12407;SDS011;6268;48.188;17.134;2023-07-22T18:15:53;2.33;;;2.22;;
12407;SDS011;6268;48.188;17.134;2023-07-22T18:19:14;2.60;;;2.40;;
12407;SDS011;6268;48.188;17.134;2023-07-22T18:22:36;2.40;;;2.15;;
12407;SDS011;6268;48.188;17.134;2023-07-22T18:25:57;2.30;;;2.20;;
12407;SDS011;6268;48.188;17.134;2023-07-22T18:29:18;3.00;;;2.80;;
12407;SDS011;6268;48.188;17.134;2023-07-22T18:32:41;2.53;;;2.42;;
12407;SDS011;6268;48.188;17.134;2023-07-22T18:36:02;2.95;;;2.75;;
12407;SDS011;6268;48.188;17.134;2023-07-22T18:39:24;3.38;;;2.92;;
12407;SDS011;6268;48.188;17.134;2023-07-22T18:42:45;2.65;;;2.35;;
12407;SDS011;6268;48.188;17.134;2023-07-22T18:46:12;2.90;;;2.70;;
12407;SDS011;6268;48.188;17.134;2023-07-22T18:49:35;2.67;;;2.47;;
12407;SDS011;6268;48.188;17.134;2023-07-22T18:52:58;2.95;;;2.72;;
12407;SDS011;6268;48.188;17.134;2023-07-22T18:56:19;2.90;;;2.70;;
12407;SDS011;6268;48.188;17.134;2023-07-22T18:59:40;3.90;;;2.75;;
12407;SDS011;6268;48.188;17.134;2023-07-22T19:03:02;2.78;;;2.58;;
12407;SDS011;6268;48.188;17.134;2023-07-22T19:06:24;2.92;;;2.72;;
12407;SDS011;6268;48.188;17.134;2023-07-22T19:09:45;2.85;;;2.70;;
12407;SDS011;6268;48.188;17.134;2023-07-22T19:13:10;3.63;;;3.33;;
12407;SDS011;6268;48.188;17.134;2023-07-22T19:16:32;3.30;;;3.10;;
12407;SDS011;6268;48.188;17.134;2023-07-22T19:19:53;4.00;;;3.63;;
12407;SDS011;6268;48.188;17.134;2023-07-22T19:23:23;3.33;;;3.03;;
12407;SDS011;6268;48.188;17.134;2023-07-22T19:26:46;3.40;;;2.88;;
12407;SDS011;6268;48.188;17.134;2023-07-22T19:30:08;3.65;;;3.35;;
12407;SDS011;6268;48.188;17.134;2023-07-22T19:33:30;3.28;;;3.08;;
12407;SDS011;6268;48.188;17.134;2023-07-22T19:36:51;7.25;;;6.55;;
12407;SDS011;6268;48.188;17.134;2023-07-22T19:40:14;6.03;;;5.50;;
12407;SDS011;6268;48.188;17.134;2023-07-22T19:43:39;2.70;;;2.50;;
12407;SDS011;6268;48.188;17.134;2023-07-22T19:47:00;2.85;;;2.65;;
12407;SDS011;6268;48.188;17.134;2023-07-22T19:50:22;2.78;;;2.58;;
12407;SDS011;6268;48.188;17.134;2023-07-22T19:53:45;3.65;;;3.28;;
12407;SDS011;6268;48.188;17.134;2023-07-22T19:57:08;3.42;;;3.13;;
12407;SDS011;6268;48.188;17.134;2023-07-22T20:00:29;4.68;;;4.25;;
12407;SDS011;6268;48.188;17.134;2023-07-22T20:03:50;3.70;;;3.25;;
12407;SDS011;6268;48.188;17.134;2023-07-22T20:07:12;5.20;;;2.80;;
12407;SDS011;6268;48.188;17.134;2023-07-22T20:10:33;4.38;;;2.53;;
12407;SDS011;6268;48.188;17.134;2023-07-22T20:13:56;3.10;;;2.90;;
12407;SDS011;6268;48.188;17.134;2023-07-22T20:17:17;3.00;;;2.80;;
12407;SDS011;6268;48.188;17.134;2023-07-22T20:20:38;3.35;;;2.80;;